sensor_id;sensor_type;location;lat;lon;timestamp;P1;durP1;ratioP1;P2;durP2;ratioP2
18249;SDS011;27980;52.126;5.572;2023-09-12T00:00:42;36.20;;;24.23;;
18249;SDS011;27980;52.126;5.572;2023-09-12T00:03:09;36.65;;;23.55;;
18249;SDS011;27980;52.126;5.572;2023-09-12T00:05:34;40.03;;;23.33;;
18249;SDS011;27980;52.126;5.572;2023-09-12T00:08:01;34.20;;;22.23;;
18249;SDS011;27980;52.126;5.572;2023-09-12T00:10:28;42.10;;;23.92;;
18249;SDS011;27980;52.126;5.572;2023-09-12T00:12:55;37.42;;;23.88;;
18249;SDS011;27980;52.126;5.572;2023-09-12T00:15:30;36.67;;;22.38;;
18249;SDS011;27980;52.126;5.572;2023-09-12T00:17:56;37.38;;;23.17;;
18249;SDS011;27980;52.126;5.572;2023-09-12T00:20:24;37.28;;;24.63;;
18249;SDS011;27980;52.126;5.572;2023-09-12T00:22:51;36.25;;;23.75;;
18249;SDS011;27980;52.126;5.572;2023-09-12T00:25:18;37.65;;;25.13;;
18249;SDS011;27980;52.126;5.572;2023-09-12T00:27:44;37.03;;;24.98;;
18249;SDS011;27980;52.126;5.572;2023-09-12T00:30:11;35.80;;;21.20;;
18249;SDS011;27980;52.126;5.572;2023-09-12T00:32:39;35.50;;;23.30;;
18249;SDS011;27980;52.126;5.572;2023-09-12T00:35:05;37.40;;;23.75;;
18249;SDS011;27980;52.126;5.572;2023-09-12T00:37:32;34.78;;;22.48;;
18249;SDS011;27980;52.126;5.572;2023-09-12T00:39:58;42.95;;;25.73;;
18249;SDS011;27980;52.126;5.572;2023-09-12T00:42:25;37.58;;;24.85;;
18249;SDS011;27980;52.126;5.572;2023-09-12T00:44:51;39.45;;;24.48;;
18249;SDS011;27980;52.126;5.572;2023-09-12T00:47:18;36.75;;;23.48;;
18249;SDS011;27980;52.126;5.572;2023-09-12T00:49:46;40.05;;;25.50;;
18249;SDS011;27980;52.126;5.572;2023-09-12T00:52:13;39.20;;;25.17;;
18249;SDS011;27980;52.126;5.572;2023-09-12T00:54:40;41.70;;;25.50;;
18249;SDS011;27980;52.126;5.572;2023-09-12T00:57:07;40.97;;;24.83;;
18249;SDS011;27980;52.126;5.572;2023-09-12T00:59:33;39.90;;;25.00;;
18249;SDS011;27980;52.126;5.572;2023-09-12T01:02:00;38.38;;;23.10;;
18249;SDS011;27980;52.126;5.572;2023-09-12T01:04:27;36.38;;;22.38;;
18249;SDS011;27980;52.126;5.572;2023-09-12T01:06:56;30.25;;;21.33;;
18249;SDS011;27980;52.126;5.572;2023-09-12T01:09:23;29.55;;;20.60;;
18249;SDS011;27980;52.126;5.572;2023-09-12T01:11:49;30.23;;;20.25;;
18249;SDS011;27980;52.126;5.572;2023-09-12T01:14:16;29.33;;;20.90;;
18249;SDS011;27980;52.126;5.572;2023-09-12T01:16:42;31.35;;;19.65;;
18249;SDS011;27980;52.126;5.572;2023-09-12T01:19:09;29.85;;;21.42;;
18249;SDS011;27980;52.126;5.572;2023-09-12T01:24:42;28.23;;;20.55;;
18249;SDS011;27980;52.126;5.572;2023-09-12T01:27:24;28.77;;;20.10;;
18249;SDS011;27980;52.126;5.572;2023-09-12T01:29:53;32.90;;;20.40;;
18249;SDS011;27980;52.126;5.572;2023-09-12T01:32:22;32.03;;;20.83;;
18249;SDS011;27980;52.126;5.572;2023-09-12T01:34:48;32.10;;;21.17;;
18249;SDS011;27980;52.126;5.572;2023-09-12T01:37:17;31.08;;;20.77;;
18249;SDS011;27980;52.126;5.572;2023-09-12T01:39:44;31.52;;;21.52;;
18249;SDS011;27980;52.126;5.572;2023-09-12T01:42:11;35.78;;;23.77;;
18249;SDS011;27980;52.126;5.572;2023-09-12T01:44:41;33.53;;;22.33;;
18249;SDS011;27980;52.126;5.572;2023-09-12T01:47:11;36.63;;;22.10;;
18249;SDS011;27980;52.126;5.572;2023-09-12T01:49:37;34.95;;;23.00;;
18249;SDS011;27980;52.126;5.572;2023-09-12T01:52:05;33.63;;;21.83;;
18249;SDS011;27980;52.126;5.572;2023-09-12T01:54:32;34.13;;;22.63;;
18249;SDS011;27980;52.126;5.572;2023-09-12T01:57:01;35.50;;;22.50;;
18249;SDS011;27980;52.126;5.572;2023-09-12T01:59:28;35.92;;;22.77;;
18249;SDS011;27980;52.126;5.572;2023-09-12T02:01:56;35.53;;;23.23;;
18249;SDS011;27980;52.126;5.572;2023-09-12T02:04:22;33.85;;;23.65;;
18249;SDS011;27980;52.126;5.572;2023-09-12T02:06:50;36.75;;;23.92;;
18249;SDS011;27980;52.126;5.572;2023-09-12T02:09:16;36.80;;;24.50;;
18249;SDS011;27980;52.126;5.572;2023-09-12T02:11:43;38.08;;;23.65;;
18249;SDS011;27980;52.126;5.572;2023-09-12T02:14:09;34.38;;;22.73;;
18249;SDS011;27980;52.126;5.572;2023-09-12T02:16:36;34.72;;;23.08;;
18249;SDS011;27980;52.126;5.572;2023-09-12T02:19:05;32.40;;;23.50;;
18249;SDS011;27980;52.126;5.572;2023-09-12T02:21:31;40.20;;;25.80;;
18249;SDS011;27980;52.126;5.572;2023-09-12T02:23:57;40.60;;;24.90;;
18249;SDS011;27980;52.126;5.572;2023-09-12T02:26:25;40.53;;;22.92;;
18249;SDS011;27980;52.126;5.572;2023-09-12T02:28:52;38.15;;;24.17;;
18249;SDS011;27980;52.126;5.572;2023-09-12T02:31:18;40.08;;;25.17;;
18249;SDS011;27980;52.126;5.572;2023-09-12T02:33:45;36.78;;;23.50;;
18249;SDS011;27980;52.126;5.572;2023-09-12T02:36:13;38.03;;;22.65;;
18249;SDS011;27980;52.126;5.572;2023-09-12T02:38:39;40.55;;;22.95;;
18249;SDS011;27980;52.126;5.572;2023-09-12T02:41:06;29.00;;;20.42;;
18249;SDS011;27980;52.126;5.572;2023-09-12T02:43:32;29.50;;;21.13;;
18249;SDS011;27980;52.126;5.572;2023-09-12T02:45:59;32.58;;;21.88;;
18249;SDS011;27980;52.126;5.572;2023-09-12T02:48:25;34.22;;;22.50;;
18249;SDS011;27980;52.126;5.572;2023-09-12T02:50:52;30.20;;;20.92;;
18249;SDS011;27980;52.126;5.572;2023-09-12T02:53:19;28.75;;;19.65;;
18249;SDS011;27980;52.126;5.572;2023-09-12T02:55:46;28.50;;;20.10;;
18249;SDS011;27980;52.126;5.572;2023-09-12T02:58:12;29.50;;;19.65;;
18249;SDS011;27980;52.126;5.572;2023-09-12T03:00:39;29.13;;;18.92;;
18249;SDS011;27980;52.126;5.572;2023-09-12T03:03:06;25.20;;;18.63;;
18249;SDS011;27980;52.126;5.572;2023-09-12T03:05:34;24.73;;;18.75;;
18249;SDS011;27980;52.126;5.572;2023-09-12T03:08:00;25.52;;;17.90;;
18249;SDS011;27980;52.126;5.572;2023-09-12T03:10:29;22.17;;;17.23;;
18249;SDS011;27980;52.126;5.572;2023-09-12T03:13:00;23.77;;;18.83;;
18249;SDS011;27980;52.126;5.572;2023-09-12T03:15:28;21.45;;;17.27;;
18249;SDS011;27980;52.126;5.572;2023-09-12T03:17:55;23.38;;;17.48;;
18249;SDS011;27980;52.126;5.572;2023-09-12T03:20:21;29.02;;;18.27;;
18249;SDS011;27980;52.126;5.572;2023-09-12T03:22:47;22.73;;;17.73;;
18249;SDS011;27980;52.126;5.572;2023-09-12T03:25:14;24.45;;;16.75;;
18249;SDS011;27980;52.126;5.572;2023-09-12T03:27:42;25.17;;;16.13;;
18249;SDS011;27980;52.126;5.572;2023-09-12T03:30:09;21.83;;;16.60;;
18249;SDS011;27980;52.126;5.572;2023-09-12T03:32:37;19.95;;;16.08;;
18249;SDS011;27980;52.126;5.572;2023-09-12T03:35:04;20.70;;;15.00;;
18249;SDS011;27980;52.126;5.572;2023-09-12T03:37:30;21.38;;;14.82;;
18249;SDS011;27980;52.126;5.572;2023-09-12T03:39:57;18.02;;;13.93;;
18249;SDS011;27980;52.126;5.572;2023-09-12T03:42:24;19.10;;;14.68;;
18249;SDS011;27980;52.126;5.572;2023-09-12T03:44:52;17.00;;;14.60;;
18249;SDS011;27980;52.126;5.572;2023-09-12T03:47:18;21.40;;;14.75;;
18249;SDS011;27980;52.126;5.572;2023-09-12T03:49:47;18.15;;;15.43;;
18249;SDS011;27980;52.126;5.572;2023-09-12T03:52:13;20.02;;;15.18;;
18249;SDS011;27980;52.126;5.572;2023-09-12T03:54:40;20.48;;;15.80;;
18249;SDS011;27980;52.126;5.572;2023-09-12T03:57:07;19.52;;;15.18;;
18249;SDS011;27980;52.126;5.572;2023-09-12T03:59:33;19.02;;;14.63;;
18249;SDS011;27980;52.126;5.572;2023-09-12T04:02:02;14.93;;;13.32;;
18249;SDS011;27980;52.126;5.572;2023-09-12T04:04:30;18.30;;;14.68;;
18249;SDS011;27980;52.126;5.572;2023-09-12T04:06:56;21.15;;;15.43;;
18249;SDS011;27980;52.126;5.572;2023-09-12T04:09:23;21.27;;;15.90;;
18249;SDS011;27980;52.126;5.572;2023-09-12T04:11:52;21.05;;;15.85;;
18249;SDS011;27980;52.126;5.572;2023-09-12T04:14:20;24.00;;;16.73;;
18249;SDS011;27980;52.126;5.572;2023-09-12T04:16:47;22.50;;;16.80;;
18249;SDS011;27980;52.126;5.572;2023-09-12T04:19:15;24.20;;;15.82;;
18249;SDS011;27980;52.126;5.572;2023-09-12T04:21:41;22.98;;;17.10;;
18249;SDS011;27980;52.126;5.572;2023-09-12T04:24:08;25.27;;;16.30;;
18249;SDS011;27980;52.126;5.572;2023-09-12T04:26:34;23.90;;;17.40;;
18249;SDS011;27980;52.126;5.572;2023-09-12T04:29:01;24.88;;;17.52;;
18249;SDS011;27980;52.126;5.572;2023-09-12T04:31:27;22.92;;;16.40;;
18249;SDS011;27980;52.126;5.572;2023-09-12T04:33:53;23.58;;;17.17;;
18249;SDS011;27980;52.126;5.572;2023-09-12T04:36:21;25.83;;;18.08;;
18249;SDS011;27980;52.126;5.572;2023-09-12T04:38:48;25.90;;;18.85;;
18249;SDS011;27980;52.126;5.572;2023-09-12T04:41:14;26.08;;;16.70;;
18249;SDS011;27980;52.126;5.572;2023-09-12T04:43:42;29.55;;;18.55;;
18249;SDS011;27980;52.126;5.572;2023-09-12T04:46:09;38.63;;;19.85;;
18249;SDS011;27980;52.126;5.572;2023-09-12T04:48:35;28.08;;;18.02;;
18249;SDS011;27980;52.126;5.572;2023-09-12T04:51:02;32.22;;;19.20;;
18249;SDS011;27980;52.126;5.572;2023-09-12T04:53:30;26.38;;;17.80;;
18249;SDS011;27980;52.126;5.572;2023-09-12T04:56:00;28.30;;;18.27;;
18249;SDS011;27980;52.126;5.572;2023-09-12T04:58:27;31.48;;;20.13;;
18249;SDS011;27980;52.126;5.572;2023-09-12T05:00:53;28.45;;;18.58;;
18249;SDS011;27980;52.126;5.572;2023-09-12T05:03:21;31.52;;;17.60;;
18249;SDS011;27980;52.126;5.572;2023-09-12T05:05:48;37.72;;;19.67;;
18249;SDS011;27980;52.126;5.572;2023-09-12T05:08:14;40.40;;;20.55;;
18249;SDS011;27980;52.126;5.572;2023-09-12T05:10:43;40.88;;;22.83;;
18249;SDS011;27980;52.126;5.572;2023-09-12T05:13:11;38.42;;;22.88;;
18249;SDS011;27980;52.126;5.572;2023-09-12T05:15:37;37.08;;;21.50;;
18249;SDS011;27980;52.126;5.572;2023-09-12T05:18:06;36.97;;;19.83;;
18249;SDS011;27980;52.126;5.572;2023-09-12T05:20:32;37.47;;;21.25;;
18249;SDS011;27980;52.126;5.572;2023-09-12T05:22:59;40.05;;;21.77;;
18249;SDS011;27980;52.126;5.572;2023-09-12T05:25:26;39.20;;;20.90;;
18249;SDS011;27980;52.126;5.572;2023-09-12T05:27:54;40.30;;;21.58;;
18249;SDS011;27980;52.126;5.572;2023-09-12T05:30:21;36.40;;;22.27;;
18249;SDS011;27980;52.126;5.572;2023-09-12T05:32:47;41.53;;;22.17;;
18249;SDS011;27980;52.126;5.572;2023-09-12T05:35:14;34.70;;;20.80;;
18249;SDS011;27980;52.126;5.572;2023-09-12T05:37:40;32.47;;;20.63;;
18249;SDS011;27980;52.126;5.572;2023-09-12T05:40:07;36.83;;;20.15;;
18249;SDS011;27980;52.126;5.572;2023-09-12T05:42:35;34.60;;;20.42;;
18249;SDS011;27980;52.126;5.572;2023-09-12T05:45:05;37.47;;;23.27;;
18249;SDS011;27980;52.126;5.572;2023-09-12T05:47:32;39.92;;;24.08;;
18249;SDS011;27980;52.126;5.572;2023-09-12T05:49:58;36.60;;;22.02;;
18249;SDS011;27980;52.126;5.572;2023-09-12T05:52:26;35.70;;;20.83;;
18249;SDS011;27980;52.126;5.572;2023-09-12T05:54:52;37.78;;;21.10;;
18249;SDS011;27980;52.126;5.572;2023-09-12T05:57:18;38.88;;;22.77;;
18249;SDS011;27980;52.126;5.572;2023-09-12T05:59:46;33.65;;;21.63;;
18249;SDS011;27980;52.126;5.572;2023-09-12T06:02:14;35.88;;;21.55;;
18249;SDS011;27980;52.126;5.572;2023-09-12T06:04:40;40.15;;;22.63;;
18249;SDS011;27980;52.126;5.572;2023-09-12T06:07:07;33.97;;;21.05;;
18249;SDS011;27980;52.126;5.572;2023-09-12T06:09:33;34.30;;;21.00;;
18249;SDS011;27980;52.126;5.572;2023-09-12T06:12:00;36.28;;;22.30;;
18249;SDS011;27980;52.126;5.572;2023-09-12T06:14:27;37.35;;;22.10;;
18249;SDS011;27980;52.126;5.572;2023-09-12T06:16:55;33.33;;;20.10;;
18249;SDS011;27980;52.126;5.572;2023-09-12T06:19:23;38.30;;;21.63;;
18249;SDS011;27980;52.126;5.572;2023-09-12T06:21:50;32.85;;;20.70;;
18249;SDS011;27980;52.126;5.572;2023-09-12T06:24:18;33.78;;;20.48;;
18249;SDS011;27980;52.126;5.572;2023-09-12T06:26:46;38.38;;;22.35;;
18249;SDS011;27980;52.126;5.572;2023-09-12T06:29:12;37.75;;;22.77;;
18249;SDS011;27980;52.126;5.572;2023-09-12T06:31:41;35.47;;;21.50;;
18249;SDS011;27980;52.126;5.572;2023-09-12T06:34:08;39.40;;;21.58;;
18249;SDS011;27980;52.126;5.572;2023-09-12T06:36:37;39.83;;;22.13;;
18249;SDS011;27980;52.126;5.572;2023-09-12T06:39:04;33.38;;;21.02;;
18249;SDS011;27980;52.126;5.572;2023-09-12T06:41:30;37.38;;;22.08;;
18249;SDS011;27980;52.126;5.572;2023-09-12T06:43:58;36.65;;;21.77;;
18249;SDS011;27980;52.126;5.572;2023-09-12T06:46:24;32.67;;;21.80;;
18249;SDS011;27980;52.126;5.572;2023-09-12T06:48:51;33.70;;;21.10;;
18249;SDS011;27980;52.126;5.572;2023-09-12T06:51:17;30.88;;;18.95;;
18249;SDS011;27980;52.126;5.572;2023-09-12T06:53:45;38.65;;;21.92;;
18249;SDS011;27980;52.126;5.572;2023-09-12T06:56:11;32.65;;;20.85;;
18249;SDS011;27980;52.126;5.572;2023-09-12T06:58:38;35.00;;;21.00;;
18249;SDS011;27980;52.126;5.572;2023-09-12T07:01:04;34.38;;;22.40;;
18249;SDS011;27980;52.126;5.572;2023-09-12T07:03:31;38.72;;;22.40;;
18249;SDS011;27980;52.126;5.572;2023-09-12T07:05:57;32.70;;;20.02;;
18249;SDS011;27980;52.126;5.572;2023-09-12T07:08:24;34.53;;;21.13;;
18249;SDS011;27980;52.126;5.572;2023-09-12T07:10:52;34.95;;;22.00;;
18249;SDS011;27980;52.126;5.572;2023-09-12T07:13:20;33.35;;;21.85;;
18249;SDS011;27980;52.126;5.572;2023-09-12T07:15:46;38.50;;;23.35;;
18249;SDS011;27980;52.126;5.572;2023-09-12T07:18:12;35.97;;;20.98;;
18249;SDS011;27980;52.126;5.572;2023-09-12T07:20:40;36.38;;;21.73;;
18249;SDS011;27980;52.126;5.572;2023-09-12T07:23:08;34.97;;;21.15;;
18249;SDS011;27980;52.126;5.572;2023-09-12T07:25:38;39.47;;;23.05;;
18249;SDS011;27980;52.126;5.572;2023-09-12T07:28:08;39.22;;;21.63;;
18249;SDS011;27980;52.126;5.572;2023-09-12T07:30:36;39.30;;;21.60;;
18249;SDS011;27980;52.126;5.572;2023-09-12T07:33:03;36.97;;;21.88;;
18249;SDS011;27980;52.126;5.572;2023-09-12T07:35:31;35.58;;;21.88;;
18249;SDS011;27980;52.126;5.572;2023-09-12T07:37:57;34.60;;;21.85;;
18249;SDS011;27980;52.126;5.572;2023-09-12T07:40:24;40.22;;;22.00;;
18249;SDS011;27980;52.126;5.572;2023-09-12T07:42:52;34.33;;;21.83;;
18249;SDS011;27980;52.126;5.572;2023-09-12T07:45:21;33.35;;;20.50;;
18249;SDS011;27980;52.126;5.572;2023-09-12T07:47:48;34.05;;;20.95;;
18249;SDS011;27980;52.126;5.572;2023-09-12T07:50:15;36.20;;;22.17;;
18249;SDS011;27980;52.126;5.572;2023-09-12T07:52:41;38.92;;;22.08;;
18249;SDS011;27980;52.126;5.572;2023-09-12T07:55:08;32.80;;;20.42;;
18249;SDS011;27980;52.126;5.572;2023-09-12T07:57:35;33.35;;;21.45;;
18249;SDS011;27980;52.126;5.572;2023-09-12T08:00:04;33.25;;;20.42;;
18249;SDS011;27980;52.126;5.572;2023-09-12T08:02:36;38.83;;;21.13;;
18249;SDS011;27980;52.126;5.572;2023-09-12T08:05:04;34.10;;;20.13;;
18249;SDS011;27980;52.126;5.572;2023-09-12T08:07:31;33.33;;;19.80;;
18249;SDS011;27980;52.126;5.572;2023-09-12T08:09:58;26.95;;;17.05;;
18249;SDS011;27980;52.126;5.572;2023-09-12T08:12:25;25.38;;;16.95;;
18249;SDS011;27980;52.126;5.572;2023-09-12T08:14:53;24.13;;;15.63;;
18249;SDS011;27980;52.126;5.572;2023-09-12T08:17:25;22.40;;;15.13;;
18249;SDS011;27980;52.126;5.572;2023-09-12T08:19:54;22.00;;;15.38;;
18249;SDS011;27980;52.126;5.572;2023-09-12T08:22:21;20.02;;;14.57;;
18249;SDS011;27980;52.126;5.572;2023-09-12T08:24:47;21.40;;;14.80;;
18249;SDS011;27980;52.126;5.572;2023-09-12T08:27:15;18.90;;;12.63;;
18249;SDS011;27980;52.126;5.572;2023-09-12T08:29:42;22.42;;;15.32;;
18249;SDS011;27980;52.126;5.572;2023-09-12T08:32:11;19.20;;;14.32;;
18249;SDS011;27980;52.126;5.572;2023-09-12T08:34:38;19.67;;;13.32;;
18249;SDS011;27980;52.126;5.572;2023-09-12T08:37:07;18.75;;;13.15;;
18249;SDS011;27980;52.126;5.572;2023-09-12T08:39:39;19.00;;;13.50;;
18249;SDS011;27980;52.126;5.572;2023-09-12T08:42:06;16.05;;;11.85;;
18249;SDS011;27980;52.126;5.572;2023-09-12T08:44:35;16.80;;;11.18;;
18249;SDS011;27980;52.126;5.572;2023-09-12T08:47:01;14.73;;;10.73;;
18249;SDS011;27980;52.126;5.572;2023-09-12T08:49:29;14.18;;;10.30;;
18249;SDS011;27980;52.126;5.572;2023-09-12T08:51:57;12.73;;;10.02;;
18249;SDS011;27980;52.126;5.572;2023-09-12T08:54:27;13.13;;;9.55;;
18249;SDS011;27980;52.126;5.572;2023-09-12T08:56:54;12.10;;;9.38;;
18249;SDS011;27980;52.126;5.572;2023-09-12T08:59:21;12.95;;;8.98;;
18249;SDS011;27980;52.126;5.572;2023-09-12T09:01:47;13.00;;;9.88;;
18249;SDS011;27980;52.126;5.572;2023-09-12T09:04:16;14.13;;;9.68;;
18249;SDS011;27980;52.126;5.572;2023-09-12T09:06:44;13.30;;;9.55;;
18249;SDS011;27980;52.126;5.572;2023-09-12T09:09:11;10.82;;;8.77;;
18249;SDS011;27980;52.126;5.572;2023-09-12T09:11:41;11.02;;;8.55;;
18249;SDS011;27980;52.126;5.572;2023-09-12T09:14:08;9.88;;;8.00;;
18249;SDS011;27980;52.126;5.572;2023-09-12T09:16:35;10.13;;;8.90;;
18249;SDS011;27980;52.126;5.572;2023-09-12T09:19:03;8.85;;;7.15;;
18249;SDS011;27980;52.126;5.572;2023-09-12T09:21:35;13.10;;;9.00;;
18249;SDS011;27980;52.126;5.572;2023-09-12T09:24:03;13.00;;;8.88;;
18249;SDS011;27980;52.126;5.572;2023-09-12T09:26:42;10.85;;;9.13;;
18249;SDS011;27980;52.126;5.572;2023-09-12T09:29:09;12.90;;;10.80;;
18249;SDS011;27980;52.126;5.572;2023-09-12T09:31:39;13.57;;;11.05;;
18249;SDS011;27980;52.126;5.572;2023-09-12T09:34:10;13.00;;;10.45;;
18249;SDS011;27980;52.126;5.572;2023-09-12T09:36:40;15.93;;;11.95;;
18249;SDS011;27980;52.126;5.572;2023-09-12T09:39:07;18.23;;;11.82;;
18249;SDS011;27980;52.126;5.572;2023-09-12T09:41:33;12.88;;;11.35;;
18249;SDS011;27980;52.126;5.572;2023-09-12T09:44:02;15.57;;;12.20;;
18249;SDS011;27980;52.126;5.572;2023-09-12T09:46:29;17.60;;;12.27;;
18249;SDS011;27980;52.126;5.572;2023-09-12T09:48:58;14.88;;;11.48;;
18249;SDS011;27980;52.126;5.572;2023-09-12T09:51:25;13.55;;;10.70;;
18249;SDS011;27980;52.126;5.572;2023-09-12T09:53:51;16.20;;;12.10;;
18249;SDS011;27980;52.126;5.572;2023-09-12T09:56:23;16.95;;;12.55;;
18249;SDS011;27980;52.126;5.572;2023-09-12T09:58:51;13.73;;;11.68;;
18249;SDS011;27980;52.126;5.572;2023-09-12T10:01:20;17.60;;;12.10;;
18249;SDS011;27980;52.126;5.572;2023-09-12T10:03:47;15.20;;;11.90;;
18249;SDS011;27980;52.126;5.572;2023-09-12T10:06:15;16.30;;;11.98;;
18249;SDS011;27980;52.126;5.572;2023-09-12T10:08:41;17.50;;;11.90;;
18249;SDS011;27980;52.126;5.572;2023-09-12T10:11:09;15.32;;;11.93;;
18249;SDS011;27980;52.126;5.572;2023-09-12T10:13:35;15.50;;;11.60;;
18249;SDS011;27980;52.126;5.572;2023-09-12T10:16:05;14.40;;;10.35;;
18249;SDS011;27980;52.126;5.572;2023-09-12T10:18:35;14.00;;;12.00;;
18249;SDS011;27980;52.126;5.572;2023-09-12T10:21:04;15.70;;;13.00;;
18249;SDS011;27980;52.126;5.572;2023-09-12T10:23:34;18.52;;;12.55;;
18249;SDS011;27980;52.126;5.572;2023-09-12T10:26:06;18.10;;;13.38;;
18249;SDS011;27980;52.126;5.572;2023-09-12T10:28:33;16.77;;;10.27;;
18249;SDS011;27980;52.126;5.572;2023-09-12T10:31:03;16.65;;;12.95;;
18249;SDS011;27980;52.126;5.572;2023-09-12T10:33:31;16.25;;;12.52;;
18249;SDS011;27980;52.126;5.572;2023-09-12T10:35:59;15.40;;;11.77;;
18249;SDS011;27980;52.126;5.572;2023-09-12T10:38:26;15.98;;;12.13;;
18249;SDS011;27980;52.126;5.572;2023-09-12T10:40:53;14.43;;;10.57;;
18249;SDS011;27980;52.126;5.572;2023-09-12T10:43:20;14.90;;;11.50;;
18249;SDS011;27980;52.126;5.572;2023-09-12T10:45:48;12.13;;;9.05;;
18249;SDS011;27980;52.126;5.572;2023-09-12T10:48:15;15.98;;;12.23;;
18249;SDS011;27980;52.126;5.572;2023-09-12T10:50:42;17.13;;;12.07;;
18249;SDS011;27980;52.126;5.572;2023-09-12T10:53:12;17.95;;;12.57;;
18249;SDS011;27980;52.126;5.572;2023-09-12T10:55:41;16.13;;;12.65;;
18249;SDS011;27980;52.126;5.572;2023-09-12T10:58:10;21.00;;;15.43;;
18249;SDS011;27980;52.126;5.572;2023-09-12T11:00:37;19.23;;;14.60;;
18249;SDS011;27980;52.126;5.572;2023-09-12T11:05:50;21.23;;;14.60;;
18249;SDS011;27980;52.126;5.572;2023-09-12T11:08:20;20.98;;;14.98;;
18249;SDS011;27980;52.126;5.572;2023-09-12T11:10:53;20.38;;;14.88;;
18249;SDS011;27980;52.126;5.572;2023-09-12T11:13:40;22.52;;;15.02;;
18249;SDS011;27980;52.126;5.572;2023-09-12T11:16:10;19.85;;;14.88;;
18249;SDS011;27980;52.126;5.572;2023-09-12T11:21:31;17.70;;;12.35;;
18249;SDS011;27980;52.126;5.572;2023-09-12T11:23:59;15.77;;;11.60;;
18249;SDS011;27980;52.126;5.572;2023-09-12T11:26:25;16.27;;;12.10;;
18249;SDS011;27980;52.126;5.572;2023-09-12T11:28:51;15.68;;;11.45;;
18249;SDS011;27980;52.126;5.572;2023-09-12T11:31:24;19.70;;;12.88;;
18249;SDS011;27980;52.126;5.572;2023-09-12T11:33:50;13.23;;;10.35;;
18249;SDS011;27980;52.126;5.572;2023-09-12T11:36:18;13.85;;;10.25;;
18249;SDS011;27980;52.126;5.572;2023-09-12T11:38:47;12.65;;;9.90;;
18249;SDS011;27980;52.126;5.572;2023-09-12T11:41:17;12.45;;;9.80;;
18249;SDS011;27980;52.126;5.572;2023-09-12T11:44:03;9.75;;;7.93;;
18249;SDS011;27980;52.126;5.572;2023-09-12T11:46:30;12.75;;;9.00;;
18249;SDS011;27980;52.126;5.572;2023-09-12T11:48:56;11.07;;;8.75;;
18249;SDS011;27980;52.126;5.572;2023-09-12T11:51:23;10.68;;;7.40;;
18249;SDS011;27980;52.126;5.572;2023-09-12T11:53:53;15.73;;;9.93;;
18249;SDS011;27980;52.126;5.572;2023-09-12T11:56:23;17.63;;;9.02;;
18249;SDS011;27980;52.126;5.572;2023-09-12T11:58:54;10.77;;;8.32;;
18249;SDS011;27980;52.126;5.572;2023-09-12T12:01:25;11.88;;;8.88;;
18249;SDS011;27980;52.126;5.572;2023-09-12T12:03:53;11.82;;;9.80;;
18249;SDS011;27980;52.126;5.572;2023-09-12T12:06:21;10.55;;;7.72;;
18249;SDS011;27980;52.126;5.572;2023-09-12T12:08:48;10.23;;;7.28;;
18249;SDS011;27980;52.126;5.572;2023-09-12T12:11:19;12.02;;;8.90;;
18249;SDS011;27980;52.126;5.572;2023-09-12T12:13:47;10.13;;;8.18;;
18249;SDS011;27980;52.126;5.572;2023-09-12T12:16:15;10.23;;;7.90;;
18249;SDS011;27980;52.126;5.572;2023-09-12T12:18:42;10.00;;;7.45;;
18249;SDS011;27980;52.126;5.572;2023-09-12T12:21:08;9.20;;;8.00;;
18249;SDS011;27980;52.126;5.572;2023-09-12T12:23:42;7.93;;;6.28;;
18249;SDS011;27980;52.126;5.572;2023-09-12T12:26:09;10.45;;;7.93;;
18249;SDS011;27980;52.126;5.572;2023-09-12T12:28:35;10.55;;;6.78;;
18249;SDS011;27980;52.126;5.572;2023-09-12T12:31:03;8.10;;;6.85;;
18249;SDS011;27980;52.126;5.572;2023-09-12T12:33:31;6.20;;;5.32;;
18249;SDS011;27980;52.126;5.572;2023-09-12T12:36:00;7.90;;;6.05;;
18249;SDS011;27980;52.126;5.572;2023-09-12T12:38:31;10.52;;;8.57;;
18249;SDS011;27980;52.126;5.572;2023-09-12T12:40:59;7.90;;;7.05;;
18249;SDS011;27980;52.126;5.572;2023-09-12T12:43:26;8.75;;;7.47;;
18249;SDS011;27980;52.126;5.572;2023-09-12T12:45:53;9.07;;;6.53;;
18249;SDS011;27980;52.126;5.572;2023-09-12T12:48:30;6.97;;;5.13;;
18249;SDS011;27980;52.126;5.572;2023-09-12T12:50:57;8.10;;;5.35;;
18249;SDS011;27980;52.126;5.572;2023-09-12T12:56:04;7.72;;;6.65;;
18249;SDS011;27980;52.126;5.572;2023-09-12T12:58:31;6.75;;;5.35;;
18249;SDS011;27980;52.126;5.572;2023-09-12T13:00:58;7.10;;;6.13;;
18249;SDS011;27980;52.126;5.572;2023-09-12T13:03:24;7.82;;;5.65;;
18249;SDS011;27980;52.126;5.572;2023-09-12T13:05:53;7.75;;;6.15;;
18249;SDS011;27980;52.126;5.572;2023-09-12T13:08:20;9.77;;;6.78;;
18249;SDS011;27980;52.126;5.572;2023-09-12T13:10:46;7.82;;;5.63;;
18249;SDS011;27980;52.126;5.572;2023-09-12T13:13:13;6.95;;;5.03;;
18249;SDS011;27980;52.126;5.572;2023-09-12T13:15:41;8.75;;;6.10;;
18249;SDS011;27980;52.126;5.572;2023-09-12T13:18:07;8.40;;;5.72;;
18249;SDS011;27980;52.126;5.572;2023-09-12T13:20:33;4.90;;;4.40;;
18249;SDS011;27980;52.126;5.572;2023-09-12T13:23:01;7.45;;;4.80;;
18249;SDS011;27980;52.126;5.572;2023-09-12T13:25:27;5.70;;;4.00;;
18249;SDS011;27980;52.126;5.572;2023-09-12T13:27:54;4.55;;;3.58;;
18249;SDS011;27980;52.126;5.572;2023-09-12T13:30:20;4.82;;;4.13;;
18249;SDS011;27980;52.126;5.572;2023-09-12T13:32:47;5.38;;;3.50;;
18249;SDS011;27980;52.126;5.572;2023-09-12T13:35:14;4.85;;;4.28;;
18249;SDS011;27980;52.126;5.572;2023-09-12T13:37:40;6.38;;;4.57;;
18249;SDS011;27980;52.126;5.572;2023-09-12T13:40:08;8.20;;;6.10;;
18249;SDS011;27980;52.126;5.572;2023-09-12T13:42:35;8.25;;;6.38;;
18249;SDS011;27980;52.126;5.572;2023-09-12T13:45:03;8.07;;;5.72;;
18249;SDS011;27980;52.126;5.572;2023-09-12T13:47:30;9.25;;;6.25;;
18249;SDS011;27980;52.126;5.572;2023-09-12T13:49:58;8.70;;;6.25;;
18249;SDS011;27980;52.126;5.572;2023-09-12T13:52:25;8.63;;;6.43;;
18249;SDS011;27980;52.126;5.572;2023-09-12T13:54:52;9.38;;;6.68;;
18249;SDS011;27980;52.126;5.572;2023-09-12T13:57:22;8.45;;;5.95;;
18249;SDS011;27980;52.126;5.572;2023-09-12T13:59:49;11.20;;;5.78;;
18249;SDS011;27980;52.126;5.572;2023-09-12T14:02:16;8.57;;;6.20;;
18249;SDS011;27980;52.126;5.572;2023-09-12T14:04:43;6.10;;;4.15;;
18249;SDS011;27980;52.126;5.572;2023-09-12T14:07:09;4.50;;;3.78;;
18249;SDS011;27980;52.126;5.572;2023-09-12T14:09:36;4.53;;;3.50;;
18249;SDS011;27980;52.126;5.572;2023-09-12T14:12:02;4.00;;;3.40;;
18249;SDS011;27980;52.126;5.572;2023-09-12T14:14:32;12.02;;;5.95;;
18249;SDS011;27980;52.126;5.572;2023-09-12T14:16:59;11.15;;;6.43;;
18249;SDS011;27980;52.126;5.572;2023-09-12T14:19:25;10.10;;;7.00;;
18249;SDS011;27980;52.126;5.572;2023-09-12T14:21:52;10.18;;;6.80;;
18249;SDS011;27980;52.126;5.572;2023-09-12T14:24:18;10.52;;;6.80;;
18249;SDS011;27980;52.126;5.572;2023-09-12T14:26:45;10.40;;;7.07;;
18249;SDS011;27980;52.126;5.572;2023-09-12T14:29:11;11.20;;;7.15;;
18249;SDS011;27980;52.126;5.572;2023-09-12T14:31:39;12.18;;;7.85;;
18249;SDS011;27980;52.126;5.572;2023-09-12T14:34:14;10.77;;;8.13;;
18249;SDS011;27980;52.126;5.572;2023-09-12T14:36:40;10.57;;;7.63;;
18249;SDS011;27980;52.126;5.572;2023-09-12T14:39:07;10.77;;;6.70;;